createdAt,value
2017-12-30T00:00:32.568Z,5.55
2017-12-30T00:01:35.053Z,3.35
2017-12-30T00:02:37.532Z,3.97
2017-12-30T00:03:40.013Z,12.68
2017-12-30T00:04:42.494Z,6.15
2017-12-30T00:05:44.967Z,10.43
2017-12-30T00:06:47.443Z,6.87
2017-12-30T00:07:49.910Z,5.68
2017-12-30T00:08:52.374Z,8.98
2017-12-30T00:09:54.847Z,8.23
2017-12-30T00:10:57.328Z,6.12
2017-12-30T00:11:59.800Z,4.70
2017-12-30T00:13:02.274Z,2.70
2017-12-30T00:14:04.740Z,3.30
2017-12-30T00:15:07.203Z,4.93
2017-12-30T00:16:09.672Z,6.82
2017-12-30T00:17:12.143Z,5.10
2017-12-30T00:18:14.626Z,7.32
2017-12-30T00:19:17.085Z,6.72
2017-12-30T00:20:19.542Z,7.65
2017-12-30T00:21:22.016Z,5.62
2017-12-30T00:22:24.488Z,7.57
2017-12-30T00:23:26.960Z,3.42
2017-12-30T00:24:29.421Z,5.68
2017-12-30T00:25:31.900Z,5.75
2017-12-30T00:26:34.365Z,4.45
2017-12-30T00:27:36.821Z,5.22
2017-12-30T00:28:39.304Z,10.63
2017-12-30T00:29:41.770Z,2.35
2017-12-30T00:30:44.250Z,2.97
2017-12-30T00:31:46.710Z,3.40
2017-12-30T00:32:49.188Z,5.30
2017-12-30T00:33:51.663Z,10.18
2017-12-30T00:34:54.160Z,5.10
2017-12-30T00:35:56.632Z,9.27
2017-12-30T00:36:59.112Z,4.82
2017-12-30T00:38:01.600Z,3.08
2017-12-30T00:39:04.054Z,4.67
2017-12-30T00:40:06.528Z,5.20
2017-12-30T00:41:09.008Z,7.65
2017-12-30T00:42:11.492Z,11.18
2017-12-30T00:43:13.964Z,8.38
2017-12-30T00:44:16.422Z,9.30
2017-12-30T00:45:18.893Z,5.50
2017-12-30T00:46:21.355Z,4.72
2017-12-30T00:47:23.857Z,4.07
2017-12-30T00:48:26.413Z,4.53
2017-12-30T00:49:28.874Z,8.50
2017-12-30T00:50:31.334Z,5.22
2017-12-30T00:51:33.795Z,5.72
2017-12-30T00:52:36.276Z,5.43
2017-12-30T00:53:38.733Z,5.47
2017-12-30T00:54:41.194Z,11.88
2017-12-30T00:55:43.653Z,3.25
2017-12-30T00:56:46.114Z,3.83
2017-12-30T00:57:48.595Z,7.37
2017-12-30T00:58:51.072Z,9.38
2017-12-30T00:59:53.539Z,9.85
2017-12-30T01:00:56.014Z,10.30
2017-12-30T01:01:58.495Z,14.65
2017-12-30T01:03:00.970Z,10.23
2017-12-30T01:04:03.448Z,9.23
2017-12-30T01:05:05.910Z,4.22
2017-12-30T01:06:08.369Z,9.15
2017-12-30T01:07:10.850Z,5.50
2017-12-30T01:08:13.328Z,9.32
2017-12-30T01:09:15.804Z,4.70
2017-12-30T01:10:18.332Z,4.53
2017-12-30T01:11:20.804Z,3.45
2017-12-30T01:12:23.276Z,7.25
2017-12-30T01:13:25.752Z,8.32
2017-12-30T01:14:28.214Z,7.18
2017-12-30T01:15:30.688Z,5.97
2017-12-30T01:16:33.164Z,9.77
2017-12-30T01:17:35.626Z,3.47
2017-12-30T01:18:38.090Z,11.45
2017-12-30T01:19:40.577Z,4.30
2017-12-30T01:20:43.060Z,5.90
2017-12-30T01:21:45.531Z,7.30
2017-12-30T01:22:48.031Z,5.45
2017-12-30T01:23:50.498Z,9.40
2017-12-30T01:24:52.987Z,5.72
2017-12-30T01:25:55.462Z,5.47
2017-12-30T01:26:57.935Z,5.65
2017-12-30T01:28:00.390Z,3.55
2017-12-30T01:29:02.872Z,1.40
2017-12-30T01:30:05.353Z,4.80
2017-12-30T01:31:07.805Z,4.03
2017-12-30T01:32:10.279Z,5.75
2017-12-30T01:33:12.754Z,3.03
2017-12-30T01:34:15.232Z,2.55
2017-12-30T01:35:17.692Z,5.65
2017-12-30T01:36:20.182Z,5.87
2017-12-30T01:37:22.646Z,2.90
2017-12-30T01:38:25.114Z,5.12
2017-12-30T01:39:27.570Z,3.22
2017-12-30T01:40:30.038Z,6.50
2017-12-30T01:41:32.516Z,2.67
2017-12-30T01:42:34.975Z,5.55
2017-12-30T01:43:37.468Z,4.10
2017-12-30T01:44:39.925Z,6.95
2017-12-30T01:45:42.382Z,5.43
2017-12-30T01:46:44.858Z,3.45
2017-12-30T01:47:47.314Z,4.90
2017-12-30T01:49:01.751Z,3.20
2017-12-30T01:50:04.227Z,3.22
2017-12-30T01:51:06.699Z,2.53
2017-12-30T01:52:09.158Z,2.00
2017-12-30T01:53:11.628Z,2.78
2017-12-30T01:54:14.124Z,6.62
2017-12-30T01:55:16.581Z,3.78
2017-12-30T01:56:19.042Z,2.70
2017-12-30T01:57:21.502Z,6.07
2017-12-30T01:58:23.980Z,11.73
2017-12-30T01:59:26.468Z,4.70
2017-12-30T02:00:28.948Z,2.58
2017-12-30T02:01:31.433Z,2.65
2017-12-30T02:02:33.902Z,8.53
2017-12-30T02:03:36.376Z,2.75
2017-12-30T02:04:38.854Z,3.67
2017-12-30T02:05:41.328Z,9.10
2017-12-30T02:06:43.794Z,12.02
2017-12-30T02:07:46.271Z,6.75
2017-12-30T02:08:48.743Z,6.72
2017-12-30T02:09:51.252Z,2.87
2017-12-30T02:10:53.729Z,2.80
2017-12-30T02:11:56.189Z,5.43
2017-12-30T02:12:58.646Z,4.72
2017-12-30T02:14:01.102Z,3.58
2017-12-30T02:15:03.600Z,7.80
2017-12-30T02:16:06.072Z,3.08
2017-12-30T02:17:08.544Z,4.82
2017-12-30T02:18:11.016Z,1.77
2017-12-30T02:19:13.478Z,4.82
2017-12-30T02:20:15.957Z,2.00
2017-12-30T02:21:18.414Z,3.12
2017-12-30T02:22:20.892Z,3.85
2017-12-30T02:23:23.360Z,2.33
2017-12-30T02:24:25.843Z,3.65
2017-12-30T02:25:28.321Z,3.90
2017-12-30T02:26:30.800Z,4.00
2017-12-30T02:27:33.283Z,7.18
2017-12-30T02:28:35.742Z,3.05
2017-12-30T02:29:38.212Z,6.57
2017-12-30T02:30:40.691Z,6.65
2017-12-30T02:31:43.154Z,8.73
2017-12-30T02:32:45.622Z,5.87
2017-12-30T02:33:48.085Z,3.12
2017-12-30T02:34:50.564Z,2.40
2017-12-30T02:35:53.051Z,2.22
2017-12-30T02:36:55.532Z,5.50
2017-12-30T02:37:57.993Z,3.85
2017-12-30T02:39:00.454Z,4.78
2017-12-30T02:40:02.918Z,4.25
2017-12-30T02:41:05.423Z,5.35
2017-12-30T02:42:07.878Z,4.57
2017-12-30T02:43:10.340Z,7.55
2017-12-30T02:44:12.813Z,6.97
2017-12-30T02:45:15.274Z,19.92
2017-12-30T02:46:17.772Z,12.15
2017-12-30T02:47:20.252Z,15.60
2017-12-30T02:48:22.723Z,7.18
2017-12-30T02:49:25.207Z,3.53
2017-12-30T02:50:27.680Z,2.97
2017-12-30T02:51:30.172Z,15.05
2017-12-30T02:52:32.634Z,6.87
2017-12-30T02:53:35.093Z,3.85
2017-12-30T02:54:37.569Z,3.83
2017-12-30T02:55:40.083Z,4.20
2017-12-30T02:56:42.568Z,8.05
2017-12-30T02:57:45.124Z,7.75
2017-12-30T02:58:47.614Z,18.87
2017-12-30T02:59:50.077Z,11.68
2017-12-30T03:00:52.562Z,8.98
2017-12-30T03:01:55.057Z,6.78
2017-12-30T03:02:57.517Z,7.68
2017-12-30T03:03:59.988Z,7.53
2017-12-30T03:05:02.460Z,5.43
2017-12-30T03:06:04.944Z,12.85
2017-12-30T03:07:07.427Z,4.80
2017-12-30T03:08:09.881Z,6.70
2017-12-30T03:09:12.341Z,4.85
2017-12-30T03:10:14.801Z,7.47
2017-12-30T03:11:17.276Z,6.35
2017-12-30T03:12:19.758Z,4.72
2017-12-30T03:13:22.217Z,5.18
2017-12-30T03:14:24.673Z,5.28
2017-12-30T03:15:27.148Z,5.50
2017-12-30T03:16:29.625Z,7.10
2017-12-30T03:17:32.126Z,10.70
2017-12-30T03:18:34.586Z,7.60
2017-12-30T03:19:37.045Z,5.40
2017-12-30T03:20:39.514Z,51.05
2017-12-30T03:21:41.987Z,6.65
2017-12-30T03:22:44.479Z,6.35
2017-12-30T03:23:46.937Z,9.38
2017-12-30T03:24:49.401Z,18.15
2017-12-30T03:25:51.879Z,18.00
2017-12-30T03:26:54.356Z,3.95
2017-12-30T03:27:56.842Z,10.63
2017-12-30T03:28:59.320Z,11.18
2017-12-30T03:30:01.782Z,5.60
2017-12-30T03:31:04.237Z,6.18
2017-12-30T03:32:06.711Z,6.57
2017-12-30T03:33:09.208Z,7.30
2017-12-30T03:34:11.675Z,11.15
2017-12-30T03:35:14.143Z,10.30
2017-12-30T03:36:16.624Z,14.70
2017-12-30T03:37:19.096Z,6.37
2017-12-30T03:38:21.596Z,5.93
2017-12-30T03:39:24.066Z,11.10
2017-12-30T03:40:26.552Z,7.85
2017-12-30T03:41:29.014Z,8.02
2017-12-30T03:42:31.478Z,6.78
2017-12-30T03:43:33.966Z,10.38
2017-12-30T03:44:36.430Z,20.00
2017-12-30T03:45:38.912Z,14.13
2017-12-30T03:46:41.373Z,20.08
2017-12-30T03:47:43.847Z,14.52
2017-12-30T03:48:46.348Z,9.80
2017-12-30T03:49:48.827Z,11.75
2017-12-30T03:50:51.286Z,6.35
2017-12-30T03:51:53.761Z,9.98
2017-12-30T03:52:56.240Z,12.40
2017-12-30T03:53:58.726Z,10.05
2017-12-30T03:55:01.204Z,9.18
2017-12-30T03:56:03.688Z,12.85
2017-12-30T03:57:06.173Z,10.23
2017-12-30T03:58:07.935Z,7.45
2017-12-30T03:59:10.421Z,13.25
2017-12-30T04:00:12.882Z,8.25
2017-12-30T04:01:15.341Z,9.05
2017-12-30T04:02:17.823Z,12.35
2017-12-30T04:03:20.300Z,9.35
2017-12-30T04:04:22.777Z,8.13
2017-12-30T04:05:25.260Z,5.78
2017-12-30T04:06:27.721Z,7.07
2017-12-30T04:07:30.196Z,7.80
2017-12-30T04:08:32.671Z,3.75
2017-12-30T04:09:35.167Z,3.17
2017-12-30T04:10:37.629Z,11.60
2017-12-30T04:11:40.094Z,18.00
2017-12-30T04:12:42.562Z,13.07
2017-12-30T04:13:45.046Z,8.13
2017-12-30T04:14:47.548Z,14.63
2017-12-30T04:15:50.013Z,8.80
2017-12-30T04:16:52.490Z,9.80
2017-12-30T04:17:54.949Z,5.62
2017-12-30T04:18:57.436Z,10.35
2017-12-30T04:19:59.944Z,11.65
2017-12-30T04:21:02.411Z,6.97
2017-12-30T04:22:04.886Z,7.75
2017-12-30T04:23:07.349Z,8.13
2017-12-30T04:24:09.813Z,24.60
2017-12-30T04:25:12.307Z,4.15
2017-12-30T04:26:14.863Z,10.43
2017-12-30T04:27:17.330Z,18.12
2017-12-30T04:28:19.808Z,22.37
2017-12-30T04:29:22.266Z,8.40
2017-12-30T04:30:24.766Z,12.95
2017-12-30T04:31:27.222Z,8.13
2017-12-30T04:32:29.687Z,10.10
2017-12-30T04:33:32.165Z,10.30
2017-12-30T04:34:34.671Z,10.25
2017-12-30T04:35:37.154Z,11.02
2017-12-30T04:36:39.619Z,16.50
2017-12-30T04:37:42.112Z,17.60
2017-12-30T04:38:44.588Z,10.15
2017-12-30T04:39:47.059Z,7.82
2017-12-30T04:40:49.542Z,7.93
2017-12-30T04:41:52.023Z,20.05
2017-12-30T04:42:54.506Z,6.25
2017-12-30T04:43:56.988Z,17.35
2017-12-30T04:44:59.449Z,4.47
2017-12-30T04:46:01.923Z,9.10
2017-12-30T04:47:04.409Z,12.15
2017-12-30T04:48:06.887Z,9.73
2017-12-30T04:49:09.359Z,4.32
2017-12-30T04:50:11.821Z,12.25
2017-12-30T04:51:14.301Z,9.90
2017-12-30T04:52:16.761Z,6.80
2017-12-30T04:53:19.222Z,4.28
2017-12-30T04:54:21.741Z,15.65
2017-12-30T04:55:24.206Z,10.05
2017-12-30T04:56:26.699Z,15.90
2017-12-30T04:57:29.176Z,12.55
2017-12-30T04:58:31.660Z,11.55
2017-12-30T04:59:34.140Z,16.12
2017-12-30T05:00:36.601Z,19.33
2017-12-30T05:01:39.085Z,17.00
2017-12-30T05:02:41.572Z,14.80
2017-12-30T05:03:44.034Z,19.58
2017-12-30T05:04:46.508Z,20.17
2017-12-30T05:05:48.987Z,12.88
2017-12-30T05:06:51.479Z,15.75
2017-12-30T05:07:53.955Z,13.07
2017-12-30T05:08:56.435Z,34.47
2017-12-30T05:09:58.920Z,11.73
2017-12-30T05:11:01.391Z,10.30
2017-12-30T05:12:03.896Z,11.82
2017-12-30T05:13:06.375Z,9.52
2017-12-30T05:14:08.852Z,8.80
2017-12-30T05:15:11.325Z,9.23
2017-12-30T05:16:13.803Z,16.55
2017-12-30T05:17:16.290Z,15.15
2017-12-30T05:18:18.771Z,12.30
2017-12-30T05:19:21.252Z,32.70
2017-12-30T05:20:23.728Z,14.95
2017-12-30T05:21:26.209Z,20.67
2017-12-30T05:22:28.717Z,12.13
2017-12-30T05:23:31.186Z,14.65
2017-12-30T05:24:33.654Z,18.98
2017-12-30T05:25:36.128Z,19.55
2017-12-30T05:26:38.613Z,19.20
2017-12-30T05:27:41.104Z,17.20
2017-12-30T05:28:43.584Z,18.83
2017-12-30T05:29:46.053Z,11.45
2017-12-30T05:30:48.554Z,27.02
2017-12-30T05:31:51.022Z,16.55
2017-12-30T05:32:53.524Z,12.80
2017-12-30T05:33:56.005Z,18.00
2017-12-30T05:34:58.488Z,13.15
2017-12-30T05:36:00.950Z,18.52
2017-12-30T05:37:03.415Z,10.55
2017-12-30T05:38:05.897Z,14.20
2017-12-30T05:39:08.379Z,14.30
2017-12-30T05:40:10.894Z,8.43
2017-12-30T05:41:13.357Z,17.70
2017-12-30T05:42:15.843Z,12.43
2017-12-30T05:43:18.341Z,8.43
2017-12-30T05:44:20.837Z,14.85
2017-12-30T05:45:23.302Z,8.73
2017-12-30T05:46:25.765Z,15.60
2017-12-30T05:47:28.245Z,10.40
2017-12-30T05:48:30.751Z,12.30
2017-12-30T05:49:33.234Z,11.68
2017-12-30T05:50:35.723Z,14.55
2017-12-30T05:51:38.204Z,8.02
2017-12-30T05:52:40.680Z,5.32
2017-12-30T05:53:43.156Z,7.22
2017-12-30T05:54:45.617Z,11.02
2017-12-30T05:55:48.082Z,15.70
2017-12-30T05:56:50.554Z,12.30
2017-12-30T05:57:53.032Z,11.18
2017-12-30T05:58:55.688Z,12.73
2017-12-30T05:59:58.147Z,8.60
2017-12-30T06:01:00.613Z,11.40
2017-12-30T06:02:03.087Z,10.27
2017-12-30T06:03:05.576Z,12.32
2017-12-30T06:04:08.061Z,10.82
2017-12-30T06:05:10.536Z,7.65
2017-12-30T06:06:13.000Z,11.10
2017-12-30T06:07:15.474Z,23.08
2017-12-30T06:08:17.947Z,6.43
2017-12-30T06:09:20.448Z,14.32
2017-12-30T06:10:22.924Z,6.37
2017-12-30T06:11:25.385Z,7.30
2017-12-30T06:12:27.864Z,6.85
2017-12-30T06:13:30.336Z,7.57
2017-12-30T06:14:32.826Z,13.30
2017-12-30T06:15:35.281Z,16.37
2017-12-30T06:16:37.750Z,11.15
2017-12-30T06:17:40.214Z,11.00
2017-12-30T06:18:42.678Z,8.32
2017-12-30T06:19:45.181Z,6.85
2017-12-30T06:20:47.660Z,9.48
2017-12-30T06:21:50.125Z,8.57
2017-12-30T06:22:52.582Z,11.37
2017-12-30T06:23:55.068Z,13.13
2017-12-30T06:24:57.568Z,7.50
2017-12-30T06:26:00.046Z,11.48
2017-12-30T06:27:02.523Z,8.40
2017-12-30T06:28:04.985Z,14.40
2017-12-30T06:29:07.451Z,4.25
2017-12-30T06:30:09.951Z,7.07
2017-12-30T06:31:12.414Z,10.93
2017-12-30T06:32:14.973Z,4.80
2017-12-30T06:33:17.442Z,12.02
2017-12-30T06:34:19.910Z,10.60
2017-12-30T06:35:22.411Z,10.70
2017-12-30T06:36:24.895Z,15.35
2017-12-30T06:37:27.358Z,8.75
2017-12-30T06:38:30.812Z,7.72
2017-12-30T06:39:33.293Z,14.05
2017-12-30T06:40:35.818Z,11.65
2017-12-30T06:41:38.285Z,10.95
2017-12-30T06:42:40.764Z,6.05
2017-12-30T06:43:43.244Z,11.43
2017-12-30T06:44:45.725Z,15.32
2017-12-30T06:45:48.220Z,5.37
2017-12-30T06:46:50.681Z,17.10
2017-12-30T06:47:53.159Z,7.50
2017-12-30T06:48:55.639Z,7.75
2017-12-30T06:49:58.101Z,15.25
2017-12-30T06:51:00.618Z,13.77
2017-12-30T06:52:03.091Z,7.87
2017-12-30T06:53:05.568Z,5.70
2017-12-30T06:54:08.026Z,6.18
2017-12-30T06:55:10.486Z,2.67
2017-12-30T06:56:12.987Z,10.10
2017-12-30T06:57:15.449Z,3.80
2017-12-30T06:58:17.910Z,8.00
2017-12-30T06:59:20.391Z,9.70
2017-12-30T07:00:22.871Z,6.35
2017-12-30T07:01:25.370Z,7.95
2017-12-30T07:02:27.852Z,3.70
2017-12-30T07:03:30.328Z,4.68
2017-12-30T07:04:32.799Z,3.80
2017-12-30T07:05:35.271Z,2.20
2017-12-30T07:06:37.768Z,4.40
2017-12-30T07:07:40.225Z,6.87
2017-12-30T07:08:42.682Z,6.22
2017-12-30T07:09:45.142Z,5.83
2017-12-30T07:10:47.610Z,9.00
2017-12-30T07:11:50.106Z,6.75
2017-12-30T07:12:52.583Z,7.90
2017-12-30T07:13:55.068Z,12.25
2017-12-30T07:14:57.530Z,5.80
2017-12-30T07:15:59.986Z,5.25
2017-12-30T07:17:02.512Z,10.63
2017-12-30T07:18:04.956Z,5.60
2017-12-30T07:19:07.432Z,2.80
2017-12-30T07:20:09.898Z,3.42
2017-12-30T07:21:12.359Z,5.18
2017-12-30T07:22:14.838Z,5.37
2017-12-30T07:23:17.316Z,4.22
2017-12-30T07:24:19.784Z,3.28
2017-12-30T07:25:22.251Z,3.75
2017-12-30T07:26:24.723Z,4.40
2017-12-30T07:27:27.213Z,11.77
2017-12-30T07:28:29.674Z,4.30
2017-12-30T07:29:32.134Z,4.12
2017-12-30T07:30:34.612Z,6.37
2017-12-30T07:31:37.082Z,6.60
2017-12-30T07:32:39.561Z,5.10
2017-12-30T07:33:42.036Z,4.03
2017-12-30T07:34:44.514Z,9.23
2017-12-30T07:35:46.992Z,9.20
2017-12-30T07:36:49.464Z,11.25
2017-12-30T07:37:51.964Z,4.45
2017-12-30T07:38:54.429Z,18.35
2017-12-30T07:39:56.894Z,6.90
2017-12-30T07:40:59.354Z,8.13
2017-12-30T07:42:01.843Z,5.12
2017-12-30T07:43:04.351Z,3.45
2017-12-30T07:44:06.810Z,3.85
2017-12-30T07:45:09.288Z,4.03
2017-12-30T07:46:11.751Z,4.80
2017-12-30T07:47:14.290Z,18.35
2017-12-30T07:48:16.795Z,8.70
2017-12-30T07:49:19.254Z,2.92
2017-12-30T07:50:21.728Z,4.30
2017-12-30T07:51:24.185Z,7.70
2017-12-30T07:52:26.656Z,4.32
2017-12-30T07:53:29.138Z,4.20
2017-12-30T07:54:31.611Z,4.80
2017-12-30T07:55:34.069Z,4.72
2017-12-30T07:56:36.638Z,3.67
2017-12-30T07:57:39.115Z,2.92
2017-12-30T07:58:41.611Z,5.00
2017-12-30T07:59:44.088Z,7.15
2017-12-30T08:00:46.553Z,2.58
2017-12-30T08:01:49.024Z,5.60
2017-12-30T08:02:51.490Z,3.35
2017-12-30T08:03:54.025Z,3.22
2017-12-30T08:04:56.481Z,8.38
2017-12-30T08:05:58.930Z,1.83
2017-12-30T08:07:01.408Z,5.50
2017-12-30T08:08:03.888Z,11.18
2017-12-30T08:09:06.371Z,8.50
2017-12-30T08:10:08.852Z,12.18
2017-12-30T08:11:11.332Z,5.28
2017-12-30T08:12:13.809Z,10.07
2017-12-30T08:13:16.279Z,5.80
2017-12-30T08:14:18.784Z,12.18
2017-12-30T08:15:21.276Z,11.48
2017-12-30T08:16:23.748Z,7.85
2017-12-30T08:17:26.214Z,12.57
2017-12-30T08:18:28.687Z,5.87
2017-12-30T08:19:31.188Z,8.57
2017-12-30T08:20:33.646Z,6.57
2017-12-30T08:21:36.110Z,11.02
2017-12-30T08:22:38.573Z,5.45
2017-12-30T08:23:41.045Z,5.25
2017-12-30T08:24:43.548Z,11.40
2017-12-30T08:25:46.036Z,18.40
2017-12-30T08:26:48.512Z,7.12
2017-12-30T08:27:50.980Z,8.33
2017-12-30T08:28:53.442Z,5.97
2017-12-30T08:29:55.918Z,10.27
2017-12-30T08:30:58.397Z,3.55
2017-12-30T08:32:00.862Z,12.88
2017-12-30T08:33:03.335Z,9.47
2017-12-30T08:34:05.820Z,14.13
2017-12-30T08:35:08.302Z,10.97
2017-12-30T08:36:10.784Z,12.80
2017-12-30T08:37:13.246Z,11.35
2017-12-30T08:38:15.697Z,18.13
2017-12-30T08:39:18.176Z,7.40
2017-12-30T08:40:20.735Z,6.45
2017-12-30T08:41:23.197Z,5.43
2017-12-30T08:42:25.653Z,10.33
2017-12-30T08:43:28.133Z,5.10
2017-12-30T08:44:30.622Z,6.05
2017-12-30T08:45:33.120Z,3.53
2017-12-30T08:46:35.574Z,3.23
2017-12-30T08:47:38.038Z,8.20
2017-12-30T08:48:40.493Z,6.17
2017-12-30T08:49:42.954Z,6.65
2017-12-30T08:50:45.478Z,5.97
2017-12-30T08:51:47.951Z,5.50
2017-12-30T08:52:50.432Z,4.05
2017-12-30T08:53:52.909Z,3.12
2017-12-30T08:54:55.397Z,3.80
2017-12-30T08:55:57.900Z,3.78
2017-12-30T08:57:00.366Z,1.95
2017-12-30T08:58:02.830Z,3.62
2017-12-30T08:59:05.300Z,3.95
2017-12-30T09:00:07.788Z,4.20
2017-12-30T09:01:10.347Z,4.57
2017-12-30T09:02:12.824Z,7.62
2017-12-30T09:03:15.367Z,5.43
2017-12-30T09:04:17.823Z,4.37
2017-12-30T09:05:20.274Z,7.63
2017-12-30T09:06:22.745Z,2.00
2017-12-30T09:07:25.207Z,1.83
2017-12-30T09:08:27.661Z,4.33
2017-12-30T09:09:30.114Z,2.20
2017-12-30T09:10:32.604Z,4.72
2017-12-30T09:11:35.077Z,4.75
2017-12-30T09:12:37.533Z,3.13
2017-12-30T09:13:39.977Z,5.20
2017-12-30T09:14:42.444Z,4.80
2017-12-30T09:15:44.928Z,2.90
2017-12-30T09:16:47.378Z,2.17
2017-12-30T09:17:49.844Z,2.60
2017-12-30T09:18:52.438Z,1.80
2017-12-30T09:19:54.939Z,2.70
2017-12-30T09:20:57.400Z,2.03
2017-12-30T09:21:59.888Z,4.00
2017-12-30T09:23:02.362Z,3.50
2017-12-30T09:24:04.828Z,2.67
2017-12-30T09:25:07.299Z,1.93
2017-12-30T09:26:09.751Z,1.83
2017-12-30T09:27:12.221Z,0.90
2017-12-30T09:28:14.687Z,2.00
2017-12-30T09:29:17.153Z,3.40
2017-12-30T09:30:19.619Z,2.10
2017-12-30T09:31:22.074Z,3.00
2017-12-30T09:32:24.598Z,1.63
2017-12-30T09:33:27.050Z,1.77
2017-12-30T09:34:29.514Z,2.50
2017-12-30T09:35:31.980Z,2.47
2017-12-30T09:36:34.434Z,2.80
2017-12-30T09:37:36.927Z,1.70
2017-12-30T09:38:39.396Z,1.17
2017-12-30T09:39:41.857Z,1.53
2017-12-30T09:40:44.326Z,3.03
2017-12-30T09:41:46.778Z,1.90
2017-12-30T09:42:49.254Z,1.37
2017-12-30T09:43:51.720Z,5.10
2017-12-30T09:44:54.189Z,1.80
2017-12-30T09:45:56.651Z,2.30
2017-12-30T09:46:59.115Z,5.33
2017-12-30T09:48:01.585Z,1.47
2017-12-30T09:49:04.044Z,2.60
2017-12-30T09:50:06.536Z,1.10
2017-12-30T09:51:09.000Z,2.37
2017-12-30T09:52:11.484Z,3.70
2017-12-30T09:53:13.957Z,2.10
2017-12-30T09:54:16.509Z,3.20
2017-12-30T09:55:18.976Z,3.07
2017-12-30T09:56:21.452Z,3.80
2017-12-30T09:57:23.897Z,1.37
2017-12-30T09:58:26.421Z,4.60
2017-12-30T09:59:28.886Z,8.17
2017-12-30T10:00:31.352Z,1.33
2017-12-30T10:01:33.801Z,1.73
2017-12-30T10:02:36.263Z,1.13
2017-12-30T10:03:38.754Z,2.40
2017-12-30T10:04:41.294Z,3.07
2017-12-30T10:05:43.747Z,3.17
2017-12-30T10:06:46.205Z,1.60
2017-12-30T10:07:48.684Z,2.80
2017-12-30T10:08:51.183Z,1.50
2017-12-30T10:09:53.685Z,3.70
2017-12-30T10:10:56.120Z,1.63
2017-12-30T10:11:58.570Z,3.40
2017-12-30T10:13:01.030Z,1.33
2017-12-30T10:14:03.498Z,4.07
2017-12-30T10:15:05.950Z,3.17
2017-12-30T10:16:08.420Z,1.93
2017-12-30T10:17:10.873Z,3.37
2017-12-30T10:18:13.336Z,2.33
2017-12-30T10:19:15.828Z,1.87
2017-12-30T10:20:18.282Z,1.37
2017-12-30T10:21:20.745Z,2.30
2017-12-30T10:22:23.219Z,1.97
2017-12-30T10:23:25.683Z,4.07
2017-12-30T10:24:28.172Z,1.70
2017-12-30T10:25:30.656Z,5.43
2017-12-30T10:26:33.136Z,1.37
2017-12-30T10:27:35.586Z,1.43
2017-12-30T10:28:38.042Z,1.73
2017-12-30T10:29:40.517Z,3.50
2017-12-30T10:30:42.974Z,5.33
2017-12-30T10:31:45.443Z,3.03
2017-12-30T10:32:47.912Z,2.77
2017-12-30T10:33:50.377Z,3.73
2017-12-30T10:34:52.854Z,2.07
2017-12-30T10:35:55.312Z,1.33
2017-12-30T10:36:57.762Z,2.00
2017-12-30T10:38:00.230Z,2.70
2017-12-30T10:39:02.685Z,2.87
2017-12-30T10:40:05.176Z,2.77
2017-12-30T10:41:07.625Z,1.90
2017-12-30T10:42:10.078Z,1.27
2017-12-30T10:43:12.552Z,2.60
2017-12-30T10:44:15.006Z,6.13
2017-12-30T10:45:17.478Z,1.60
2017-12-30T10:46:19.945Z,4.53
2017-12-30T10:47:22.398Z,2.10
2017-12-30T10:48:24.846Z,7.73
2017-12-30T10:49:27.306Z,3.67
2017-12-30T10:50:29.838Z,1.90
2017-12-30T10:51:32.315Z,2.20
2017-12-30T10:52:34.780Z,1.77
2017-12-30T10:53:37.254Z,2.07
2017-12-30T10:54:39.709Z,2.20
2017-12-30T10:55:42.186Z,2.10
2017-12-30T10:56:44.656Z,2.20
2017-12-30T10:57:47.119Z,1.30
2017-12-30T10:58:49.570Z,1.70
2017-12-30T10:59:52.032Z,1.83
2017-12-30T11:00:58.482Z,1.00
2017-12-30T11:02:00.943Z,1.17
2017-12-30T11:03:03.390Z,1.23
2017-12-30T11:04:05.860Z,0.90
2017-12-30T11:05:08.323Z,1.13
2017-12-30T11:06:10.800Z,1.67
2017-12-30T11:07:13.272Z,1.03
2017-12-30T11:08:15.721Z,1.40
2017-12-30T11:09:18.173Z,2.63
2017-12-30T11:10:20.626Z,2.33
2017-12-30T11:11:23.117Z,2.60
2017-12-30T11:12:25.580Z,1.40
2017-12-30T11:13:28.043Z,0.80
2017-12-30T11:14:30.528Z,0.97
2017-12-30T11:15:32.978Z,1.93
2017-12-30T11:16:35.468Z,2.70
2017-12-30T11:17:37.932Z,1.10
2017-12-30T11:18:40.396Z,2.50
2017-12-30T11:19:42.851Z,1.20
2017-12-30T11:20:45.328Z,1.20
2017-12-30T11:21:47.812Z,6.50
2017-12-30T11:22:50.276Z,2.00
2017-12-30T11:23:52.726Z,4.77
2017-12-30T11:24:55.178Z,3.83
2017-12-30T11:25:58.808Z,4.87
2017-12-30T11:27:01.311Z,3.83
2017-12-30T11:28:03.777Z,2.55
2017-12-30T11:29:06.265Z,15.27
2017-12-30T11:30:08.760Z,4.00
2017-12-30T11:31:11.244Z,7.50
2017-12-30T11:32:13.743Z,9.82
2017-12-30T11:33:16.205Z,2.00
2017-12-30T11:34:18.674Z,2.37
2017-12-30T11:35:21.146Z,4.80
2017-12-30T11:36:23.614Z,4.47
2017-12-30T11:37:26.098Z,4.75
2017-12-30T11:38:28.575Z,5.37
2017-12-30T11:39:31.076Z,5.83
2017-12-30T11:40:33.538Z,8.65
2017-12-30T11:41:36.008Z,4.72
2017-12-30T11:42:38.490Z,6.62
2017-12-30T11:43:40.982Z,6.90
2017-12-30T11:44:43.458Z,11.57
2017-12-30T11:45:45.944Z,19.98
2017-12-30T11:46:48.410Z,15.57
2017-12-30T11:47:50.908Z,10.93
2017-12-30T11:48:53.374Z,19.12
2017-12-30T11:49:55.852Z,10.68
2017-12-30T11:50:58.331Z,12.75
2017-12-30T11:52:00.812Z,11.05
2017-12-30T11:53:03.320Z,8.00
2017-12-30T11:54:05.815Z,14.40
2017-12-30T11:55:08.301Z,15.63
2017-12-30T11:56:10.770Z,5.90
2017-12-30T11:57:13.243Z,6.25
2017-12-30T11:58:15.729Z,13.82
2017-12-30T11:59:18.465Z,12.95
2017-12-30T12:00:20.936Z,10.27
2017-12-30T12:01:23.419Z,15.95
2017-12-30T12:02:26.791Z,15.57
2017-12-30T12:03:29.287Z,17.30
2017-12-30T12:04:31.756Z,22.30
2017-12-30T12:05:34.224Z,9.80
2017-12-30T12:06:36.704Z,19.20
2017-12-30T12:07:39.180Z,15.23
2017-12-30T12:08:41.665Z,24.33
2017-12-30T12:09:44.141Z,14.73
2017-12-30T12:10:46.660Z,17.75
2017-12-30T12:11:49.164Z,17.77
2017-12-30T12:12:51.659Z,12.07
2017-12-30T12:13:54.142Z,12.10
2017-12-30T12:14:56.601Z,30.10
2017-12-30T12:15:59.061Z,16.20
2017-12-30T12:17:01.544Z,19.80
2017-12-30T12:18:04.010Z,16.48
2017-12-30T12:19:06.614Z,18.95
2017-12-30T12:20:09.105Z,17.62
2017-12-30T12:21:11.574Z,19.17
2017-12-30T12:22:14.056Z,27.50
2017-12-30T12:23:16.536Z,22.58
2017-12-30T12:24:19.035Z,29.30
2017-12-30T12:25:21.525Z,25.62
2017-12-30T12:26:23.999Z,27.83
2017-12-30T12:27:26.482Z,23.90
2017-12-30T12:28:28.971Z,34.72
2017-12-30T12:29:31.532Z,26.10
2017-12-30T12:30:34.069Z,31.55
2017-12-30T12:31:36.551Z,25.58
2017-12-30T12:32:39.013Z,22.30
2017-12-30T12:33:41.492Z,26.75
2017-12-30T12:34:43.991Z,24.73
2017-12-30T12:35:46.476Z,22.65
2017-12-30T12:36:48.938Z,35.80
2017-12-30T12:37:51.440Z,20.40
2017-12-30T12:38:53.921Z,37.03
2017-12-30T12:39:56.441Z,23.85
2017-12-30T12:40:58.906Z,28.75
2017-12-30T12:42:01.384Z,21.10
2017-12-30T12:43:03.864Z,18.87
2017-12-30T12:44:06.347Z,33.95
2017-12-30T12:45:08.864Z,28.58
2017-12-30T12:46:11.329Z,27.70
2017-12-30T12:47:13.794Z,21.15
2017-12-30T12:48:16.276Z,25.48
2017-12-30T12:49:18.747Z,21.55
2017-12-30T12:50:21.221Z,27.85
2017-12-30T12:51:23.686Z,25.25
2017-12-30T12:52:26.149Z,24.00
2017-12-30T12:53:28.632Z,26.23
2017-12-30T12:54:31.103Z,21.92
2017-12-30T12:55:33.591Z,27.87
2017-12-30T12:56:36.072Z,28.52
2017-12-30T12:57:38.556Z,28.80
2017-12-30T12:58:41.035Z,36.47
2017-12-30T12:59:43.498Z,26.40
2017-12-30T13:00:45.978Z,32.60
2017-12-30T13:01:48.450Z,23.35
2017-12-30T13:02:50.918Z,22.73
2017-12-30T13:03:53.434Z,30.20
2017-12-30T13:04:55.915Z,21.27
2017-12-30T13:05:58.400Z,23.52
2017-12-30T13:07:00.874Z,22.73
2017-12-30T13:08:03.351Z,21.52
2017-12-30T13:09:05.837Z,22.92
2017-12-30T13:10:08.308Z,22.60
2017-12-30T13:11:10.782Z,20.55
2017-12-30T13:12:13.245Z,20.48
2017-12-30T13:13:15.709Z,22.52
2017-12-30T13:14:18.205Z,22.02
2017-12-30T13:15:20.676Z,33.85
2017-12-30T13:16:23.141Z,19.02
2017-12-30T13:17:25.614Z,20.60
2017-12-30T13:18:28.092Z,25.60
2017-12-30T13:19:30.563Z,34.08
2017-12-30T13:20:33.047Z,23.85
2017-12-30T13:21:35.528Z,29.20
2017-12-30T13:22:37.993Z,25.80
2017-12-30T13:23:40.453Z,23.73
2017-12-30T13:24:42.932Z,19.40
2017-12-30T13:25:45.412Z,20.42
2017-12-30T13:26:47.904Z,23.87
2017-12-30T13:27:50.388Z,24.73
2017-12-30T13:28:52.853Z,23.38
2017-12-30T13:29:55.317Z,18.60
2017-12-30T13:30:57.786Z,20.65
2017-12-30T13:32:00.268Z,20.00
2017-12-30T13:33:02.752Z,21.90
2017-12-30T13:34:05.234Z,23.08
2017-12-30T13:35:07.704Z,20.97
2017-12-30T13:36:10.220Z,19.13
2017-12-30T13:37:12.705Z,20.98
2017-12-30T13:38:15.184Z,23.02
2017-12-30T13:39:17.659Z,21.83
2017-12-30T13:40:20.130Z,21.75
2017-12-30T13:41:22.624Z,22.40
2017-12-30T13:42:25.103Z,18.80